createdAt,value
2023-01-23T00:01:05.443Z,98499.34
2023-01-23T00:03:33.363Z,98492.53
2023-01-23T00:06:05.900Z,98484.94
2023-01-23T00:08:35.757Z,98490.91
2023-01-23T00:11:07.129Z,98489.19
2023-01-23T00:13:36.965Z,98490.88
2023-01-23T00:16:05.458Z,98499.38
2023-01-23T00:18:32.174Z,98497.66
2023-01-23T00:20:58.902Z,98495.13
2023-01-23T00:23:25.401Z,98485.75
2023-01-23T00:25:51.827Z,98490.03
2023-01-23T00:28:18.324Z,98491.75
2023-01-23T00:30:44.923Z,98495.16
2023-01-23T00:33:14.193Z,98496.00
2023-01-23T00:35:40.663Z,98496.00
2023-01-23T00:38:07.279Z,98496.00
2023-01-23T00:40:33.981Z,98499.41
2023-01-23T00:43:00.443Z,98498.53
2023-01-23T00:45:26.903Z,98497.69
2023-01-23T00:47:53.375Z,98506.19
2023-01-23T00:50:22.139Z,98511.28
2023-01-23T00:52:51.076Z,98507.91
2023-01-23T00:55:17.574Z,98500.28
2023-01-23T00:57:44.070Z,98499.38
2023-01-23T01:00:11.292Z,98499.38
2023-01-23T01:02:37.931Z,98498.56
2023-01-23T01:05:04.867Z,98495.16
2023-01-23T01:07:31.400Z,98491.75
2023-01-23T01:09:57.884Z,98492.59
2023-01-23T01:12:24.372Z,98501.09
2023-01-23T01:14:50.833Z,98508.72
2023-01-23T01:17:17.459Z,98511.31
2023-01-23T01:19:43.920Z,98519.00
2023-01-23T01:22:12.810Z,98515.59
2023-01-23T01:24:44.563Z,98514.72
2023-01-23T01:27:11.120Z,98522.38
2023-01-23T01:29:37.580Z,98523.22
2023-01-23T01:32:04.365Z,98517.25
2023-01-23T01:34:33.210Z,98521.47
2023-01-23T01:37:00.358Z,98521.47
2023-01-23T01:39:26.847Z,98516.41
2023-01-23T01:41:53.340Z,98521.50
2023-01-23T01:44:22.992Z,98524.94
2023-01-23T01:46:52.294Z,98522.38
2023-01-23T01:49:26.505Z,98518.97
2023-01-23T01:52:03.174Z,98518.94
2023-01-23T01:54:41.397Z,98514.66
2023-01-23T01:57:14.410Z,98509.53
2023-01-23T01:59:47.638Z,98501.03
2023-01-23T02:02:25.140Z,98501.00
2023-01-23T02:04:58.192Z,98501.03
2023-01-23T02:07:35.358Z,98491.59
2023-01-23T02:10:05.317Z,98497.50
2023-01-23T02:12:35.227Z,98490.75
2023-01-23T02:15:03.890Z,98490.75
2023-01-23T02:17:31.420Z,98489.94
2023-01-23T02:19:59.232Z,98477.13
2023-01-23T02:22:43.349Z,98469.44
2023-01-23T02:25:40.128Z,98461.75
2023-01-23T02:28:07.186Z,98458.28
2023-01-23T02:30:33.663Z,98471.94
2023-01-23T02:33:32.499Z,98470.28
2023-01-23T02:36:00.507Z,98477.06
2023-01-23T02:38:32.397Z,98466.78
2023-01-23T02:41:02.263Z,98477.88
2023-01-23T02:43:35.097Z,98477.88
2023-01-23T02:46:10.060Z,98477.84
2023-01-23T02:48:40.092Z,98477.84
2023-01-23T02:51:07.441Z,98480.41
2023-01-23T02:53:33.938Z,98485.56
2023-01-23T02:56:00.766Z,98485.56
2023-01-23T02:58:45.652Z,98490.69
2023-01-23T03:01:12.219Z,98489.00
2023-01-23T03:03:41.597Z,98487.28
2023-01-23T03:06:08.664Z,98482.06
2023-01-23T03:08:36.714Z,98482.06
2023-01-23T03:11:04.515Z,98476.91
2023-01-23T03:13:31.496Z,98472.66
2023-01-23T03:15:58.247Z,98470.94
2023-01-23T03:18:27.657Z,98477.75
2023-01-23T03:21:05.369Z,98470.06
2023-01-23T03:23:31.864Z,98469.25
2023-01-23T03:26:00.563Z,98473.44
2023-01-23T03:29:02.510Z,98469.97
2023-01-23T03:31:31.137Z,98458.91
2023-01-23T03:33:57.726Z,98465.75
2023-01-23T03:36:24.199Z,98456.34
2023-01-23T03:39:08.955Z,98461.53
2023-01-23T03:41:36.584Z,98451.25
2023-01-23T03:44:05.317Z,98461.41
2023-01-23T03:46:31.774Z,98463.13
2023-01-23T03:48:58.260Z,98464.81
2023-01-23T03:51:24.880Z,98453.69
2023-01-23T03:53:51.335Z,98449.31
2023-01-23T03:56:17.828Z,98450.31
2023-01-23T03:58:44.720Z,98453.75
2023-01-23T04:01:13.271Z,98459.63
2023-01-23T04:03:39.766Z,98471.66
2023-01-23T04:06:06.419Z,98469.97
2023-01-23T04:08:32.861Z,98471.63
2023-01-23T04:11:07.864Z,98475.84
2023-01-23T04:13:34.403Z,98480.16
2023-01-23T04:16:01.457Z,98480.97
2023-01-23T04:18:30.514Z,98471.59
2023-01-23T04:21:00.023Z,98469.69
2023-01-23T04:23:26.879Z,98469.72
2023-01-23T04:25:53.499Z,98471.50
2023-01-23T04:28:20.312Z,98471.47
2023-01-23T04:30:46.848Z,98472.28
2023-01-23T04:33:13.343Z,98469.75
2023-01-23T04:35:39.813Z,98469.69
2023-01-23T04:38:06.268Z,98465.41
2023-01-23T04:40:32.720Z,98475.66
2023-01-23T04:42:59.175Z,98475.66
2023-01-23T04:45:25.675Z,98479.09
2023-01-23T04:47:52.213Z,98478.25
2023-01-23T04:50:19.055Z,98477.38
2023-01-23T04:52:45.828Z,98479.91
2023-01-23T04:55:12.292Z,98483.25
2023-01-23T04:57:38.735Z,98497.78
2023-01-23T05:00:09.670Z,98490.94
2023-01-23T05:02:36.276Z,98493.50
2023-01-23T05:05:03.011Z,98492.59
2023-01-23T05:07:29.595Z,98490.88
2023-01-23T05:09:56.075Z,98491.72
2023-01-23T05:12:22.564Z,98495.88
2023-01-23T05:14:49.046Z,98496.81
2023-01-23T05:17:15.666Z,98495.97
2023-01-23T05:19:44.463Z,98500.19
2023-01-23T05:22:11.003Z,98501.97
2023-01-23T05:24:37.498Z,98496.75
2023-01-23T05:27:03.962Z,98497.72
2023-01-23T05:29:30.536Z,98497.72
2023-01-23T05:31:57.033Z,98499.41
2023-01-23T05:34:23.559Z,98497.59
2023-01-23T05:36:50.012Z,98501.88
2023-01-23T05:39:16.482Z,98496.84
2023-01-23T05:41:43.009Z,98503.59
2023-01-23T05:44:09.481Z,98502.00
2023-01-23T05:46:36.013Z,98507.97
2023-01-23T05:49:02.514Z,98507.16
2023-01-23T05:51:32.464Z,98493.44
2023-01-23T05:54:02.556Z,98492.56
2023-01-23T05:56:29.486Z,98484.94
2023-01-23T05:58:56.094Z,98494.28
2023-01-23T06:01:23.579Z,98490.00
2023-01-23T06:03:50.112Z,98496.81
2023-01-23T06:06:16.652Z,98493.31
2023-01-23T06:08:43.126Z,98492.50
2023-01-23T06:11:09.706Z,98510.31
2023-01-23T06:13:36.270Z,98502.63
2023-01-23T06:16:02.785Z,98503.56
2023-01-23T06:18:29.297Z,98501.88
2023-01-23T06:21:00.820Z,98503.47
2023-01-23T06:23:27.773Z,98507.84
2023-01-23T06:25:54.465Z,98510.31
2023-01-23T06:28:20.927Z,98507.84
2023-01-23T06:30:47.491Z,98522.31
2023-01-23T06:33:14.075Z,98517.25
2023-01-23T06:35:40.544Z,98524.13
2023-01-23T06:38:10.376Z,98530.06
2023-01-23T06:40:36.859Z,98524.94
2023-01-23T06:43:03.338Z,98535.19
2023-01-23T06:45:29.817Z,98536.06
2023-01-23T06:47:56.423Z,98530.84
2023-01-23T06:50:23.263Z,98536.63
2023-01-23T06:52:49.906Z,98544.44
2023-01-23T06:55:16.495Z,98550.41
2023-01-23T06:57:43.022Z,98550.41
2023-01-23T07:00:10.154Z,98555.50
2023-01-23T07:02:38.748Z,98553.81
2023-01-23T07:05:05.619Z,98558.09
2023-01-23T07:07:32.237Z,98564.91
2023-01-23T07:09:59.718Z,98569.19
2023-01-23T07:12:26.224Z,98562.34
2023-01-23T07:14:52.663Z,98548.66
2023-01-23T07:17:19.180Z,98557.06
2023-01-23T07:19:45.650Z,98553.66
2023-01-23T07:22:12.354Z,98567.22
2023-01-23T07:24:39.034Z,98558.88
2023-01-23T07:27:05.468Z,98552.03
2023-01-23T07:29:31.936Z,98553.56
2023-01-23T07:32:00.832Z,98558.59
2023-01-23T07:34:27.806Z,98551.84
2023-01-23T07:36:54.282Z,98559.53
2023-01-23T07:39:20.736Z,98552.72
2023-01-23T07:41:47.208Z,98550.13
2023-01-23T07:44:20.905Z,98551.78
2023-01-23T07:46:50.684Z,98553.47
2023-01-23T07:49:17.376Z,98559.44
2023-01-23T07:51:43.940Z,98559.41
2023-01-23T07:54:10.421Z,98565.44
2023-01-23T07:56:36.979Z,98558.59
2023-01-23T07:59:03.599Z,98569.41
2023-01-23T08:01:30.150Z,98566.91
2023-01-23T08:03:56.817Z,98573.63
2023-01-23T08:06:23.359Z,98570.25
2023-01-23T08:08:52.858Z,98572.94
2023-01-23T08:11:19.493Z,98571.28
2023-01-23T08:13:49.261Z,98567.84
2023-01-23T08:16:16.369Z,98568.59
2023-01-23T08:18:42.864Z,98566.72
2023-01-23T08:21:10.379Z,98553.22
2023-01-23T08:23:36.961Z,98545.47
2023-01-23T08:26:06.691Z,98547.78
2023-01-23T08:28:36.182Z,98558.09
2023-01-23T08:31:06.727Z,98558.06
2023-01-23T08:33:34.648Z,98550.38
2023-01-23T08:36:01.479Z,98556.34
2023-01-23T08:38:28.032Z,98553.75
2023-01-23T08:40:58.023Z,98558.97
2023-01-23T08:43:24.503Z,98558.91
2023-01-23T08:45:53.830Z,98550.25
2023-01-23T08:48:21.974Z,98562.03
2023-01-23T08:50:49.112Z,98564.31
2023-01-23T08:53:16.113Z,98558.50
2023-01-23T08:55:43.035Z,98562.81
2023-01-23T08:58:13.013Z,98568.56
2023-01-23T09:00:40.283Z,98563.63
2023-01-23T09:03:07.007Z,98559.22
2023-01-23T09:05:36.091Z,98562.59
2023-01-23T09:08:02.605Z,98562.47
2023-01-23T09:10:29.131Z,98563.44
2023-01-23T09:12:55.849Z,98554.81
2023-01-23T09:15:22.522Z,98562.44
2023-01-23T09:17:50.005Z,98557.31
2023-01-23T09:20:17.055Z,98558.97
2023-01-23T09:22:43.608Z,98558.91
2023-01-23T09:25:10.657Z,98562.28
2023-01-23T09:27:37.145Z,98557.94
2023-01-23T09:30:04.701Z,98551.94
2023-01-23T09:32:31.199Z,98546.63
2023-01-23T09:34:57.663Z,98543.94
2023-01-23T09:37:24.131Z,98544.69
2023-01-23T09:39:50.558Z,98548.22
2023-01-23T09:42:37.406Z,98536.19
2023-01-23T09:45:08.053Z,98536.00
2023-01-23T09:48:00.443Z,98549.94
2023-01-23T09:50:32.260Z,98533.44
2023-01-23T09:53:08.526Z,98528.34
2023-01-23T09:56:07.090Z,98538.59
2023-01-23T09:58:44.273Z,98532.56
2023-01-23T10:01:13.732Z,98525.78
2023-01-23T10:03:41.380Z,98521.31
2023-01-23T10:06:26.830Z,98528.16
2023-01-23T10:09:12.416Z,98524.00
2023-01-23T10:11:53.765Z,98527.31
2023-01-23T10:14:26.575Z,98527.28
2023-01-23T10:16:56.091Z,98525.25
2023-01-23T10:19:45.206Z,98540.66
2023-01-23T10:22:30.400Z,98529.69
2023-01-23T10:25:02.598Z,98521.81
2023-01-23T10:27:45.384Z,98517.59
2023-01-23T10:30:12.031Z,98517.59
2023-01-23T10:32:49.973Z,98521.09
2023-01-23T10:35:29.767Z,98510.78
2023-01-23T10:38:19.171Z,98508.13
2023-01-23T10:41:07.634Z,98500.38
2023-01-23T10:43:35.921Z,98508.56
2023-01-23T10:46:10.188Z,98511.22
2023-01-23T10:48:41.376Z,98506.97
2023-01-23T10:51:26.838Z,98521.34
2023-01-23T10:54:17.024Z,98505.22
2023-01-23T10:57:20.562Z,98500.13
2023-01-23T10:59:56.685Z,98485.47
2023-01-23T11:02:35.030Z,98480.88
2023-01-23T11:05:13.171Z,98482.75
2023-01-23T11:07:40.441Z,98468.91
2023-01-23T11:10:10.071Z,98480.06
2023-01-23T11:12:52.577Z,98474.66
2023-01-23T11:15:22.544Z,98473.03
2023-01-23T11:17:50.923Z,98478.09
2023-01-23T11:20:27.301Z,98467.81
2023-01-23T11:23:03.217Z,98472.00
2023-01-23T11:25:39.378Z,98468.31
2023-01-23T11:28:30.867Z,98466.88
2023-01-23T11:31:19.882Z,98464.41
2023-01-23T11:34:11.438Z,98454.00
2023-01-23T11:37:23.137Z,98458.81
2023-01-23T11:40:05.465Z,98454.91
2023-01-23T11:42:32.050Z,98451.41
2023-01-23T11:45:00.369Z,98442.88
2023-01-23T11:47:56.182Z,98447.69
2023-01-23T11:50:54.993Z,98446.19
2023-01-23T11:53:44.047Z,98444.41
2023-01-23T11:56:39.764Z,98430.69
2023-01-23T11:59:24.429Z,98432.38
2023-01-23T12:04:58.585Z,98433.25
2023-01-23T12:07:26.165Z,98417.88
2023-01-23T12:10:26.626Z,98425.22
2023-01-23T12:13:33.453Z,98435.56
2023-01-23T12:16:24.922Z,98430.13
2023-01-23T12:18:51.455Z,98436.22
2023-01-23T12:21:20.728Z,98430.16
2023-01-23T12:24:19.557Z,98439.78
2023-01-23T12:27:00.464Z,98432.03
2023-01-23T12:29:35.661Z,98425.91
2023-01-23T12:32:33.236Z,98427.44
2023-01-23T12:35:09.607Z,98427.56
2023-01-23T12:37:53.003Z,98427.56
2023-01-23T12:40:38.770Z,98412.97
2023-01-23T12:43:14.389Z,98418.22
2023-01-23T12:45:49.136Z,98432.03
2023-01-23T12:48:32.372Z,98425.78
2023-01-23T12:51:11.529Z,98416.44
2023-01-23T12:53:41.805Z,98417.38
2023-01-23T12:56:17.530Z,98411.38
2023-01-23T12:59:00.229Z,98412.94
2023-01-23T13:01:45.096Z,98406.03
2023-01-23T13:04:26.718Z,98400.97
2023-01-23T13:07:08.308Z,98398.25
2023-01-23T13:09:52.405Z,98405.81
2023-01-23T13:12:24.352Z,98402.53
2023-01-23T13:15:17.185Z,98409.75
2023-01-23T13:18:03.984Z,98398.25
2023-01-23T13:20:51.594Z,98393.38
2023-01-23T13:23:35.236Z,98407.81
2023-01-23T13:26:15.651Z,98409.66
2023-01-23T13:29:01.503Z,98410.25
2023-01-23T13:31:53.019Z,98412.72
2023-01-23T13:34:34.891Z,98408.28
2023-01-23T13:37:26.531Z,98414.47
2023-01-23T13:40:15.377Z,98405.19
2023-01-23T13:42:41.872Z,98407.75
2023-01-23T13:45:24.243Z,98411.84
2023-01-23T14:21:57.083Z,98426.25
2023-01-23T14:24:30.436Z,98426.16
2023-01-23T14:27:07.266Z,98431.28
2023-01-23T14:29:34.796Z,98426.16
2023-01-23T14:32:01.283Z,98428.72
2023-01-23T14:34:27.988Z,98425.22
2023-01-23T14:37:10.692Z,98421.03
2023-01-23T14:39:38.490Z,98431.41
2023-01-23T14:42:11.482Z,98426.97
2023-01-23T14:44:44.899Z,98433.84
2023-01-23T14:47:39.414Z,98430.56
2023-01-23T14:50:16.336Z,98432.19
2023-01-23T14:52:42.907Z,98439.25
2023-01-23T14:55:29.795Z,98422.88
2023-01-23T14:57:59.559Z,98423.09
2023-01-23T15:00:27.998Z,98414.34
2023-01-23T15:02:56.322Z,98417.03
2023-01-23T15:05:27.969Z,98418.63
2023-01-23T15:08:05.945Z,98415.16
2023-01-23T15:10:43.650Z,98412.78
2023-01-23T15:13:13.379Z,98418.00
2023-01-23T15:15:48.760Z,98423.69
2023-01-23T15:18:24.124Z,98422.78
2023-01-23T15:20:58.886Z,98431.47
2023-01-23T15:23:31.230Z,98424.59
2023-01-23T15:26:33.278Z,98428.09
2023-01-23T15:29:09.032Z,98428.97
2023-01-23T15:31:39.140Z,98417.84
2023-01-23T15:34:15.028Z,98418.00
2023-01-23T15:37:20.207Z,98417.97
2023-01-23T15:39:46.729Z,98429.88
2023-01-23T15:42:13.368Z,98423.69
2023-01-23T15:44:41.314Z,98428.13
2023-01-23T15:47:08.212Z,98424.66
2023-01-23T15:49:37.164Z,98427.28
2023-01-23T15:52:50.139Z,98430.00
2023-01-23T15:55:18.058Z,98416.44
2023-01-23T15:57:44.602Z,98424.03
2023-01-23T16:00:24.797Z,98420.53
2023-01-23T16:02:56.759Z,98421.47
2023-01-23T16:05:26.627Z,98430.69
2023-01-23T16:07:54.535Z,98434.19
2023-01-23T16:10:24.404Z,98434.09
2023-01-23T16:12:53.007Z,98429.69
2023-01-23T16:15:22.271Z,98429.25
2023-01-23T16:17:49.634Z,98426.47
2023-01-23T16:20:21.440Z,98435.34
2023-01-23T16:22:56.273Z,98435.00
2023-01-23T16:25:43.002Z,98434.31
2023-01-23T16:28:14.098Z,98431.69
2023-01-23T16:30:42.932Z,98432.59
2023-01-23T16:33:09.787Z,98438.53
2023-01-23T16:35:36.835Z,98438.41
2023-01-23T16:38:03.870Z,98444.66
2023-01-23T16:40:31.615Z,98450.53
2023-01-23T16:42:59.932Z,98464.34
2023-01-23T16:45:28.806Z,98461.59
2023-01-23T16:47:55.918Z,98464.06
2023-01-23T16:50:45.908Z,98470.97
2023-01-23T16:53:20.912Z,98476.34
2023-01-23T16:55:47.628Z,98465.72
2023-01-23T16:58:19.921Z,98465.88
2023-01-23T17:00:46.839Z,98465.03
2023-01-23T17:03:24.978Z,98460.69
2023-01-23T17:05:54.109Z,98459.91
2023-01-23T17:08:25.651Z,98460.78
2023-01-23T17:11:02.190Z,98465.75
2023-01-23T17:13:33.586Z,98454.63
2023-01-23T17:16:01.045Z,98455.63
2023-01-23T17:18:31.369Z,98457.06
2023-01-23T17:20:58.783Z,98459.78
2023-01-23T17:23:25.881Z,98464.16
2023-01-23T17:26:01.408Z,98457.13
2023-01-23T17:28:28.936Z,98470.06
2023-01-23T17:30:58.090Z,98464.91
2023-01-23T17:33:27.169Z,98472.03
2023-01-23T17:35:54.268Z,98460.13
2023-01-23T17:38:23.864Z,98471.91
2023-01-23T17:40:51.629Z,98466.56
2023-01-23T17:43:20.266Z,98466.72
2023-01-23T17:45:51.387Z,98476.22
2023-01-23T17:48:26.341Z,98471.97
2023-01-23T17:50:53.158Z,98471.06
2023-01-23T17:53:19.806Z,98474.47
2023-01-23T17:55:49.242Z,98465.72
2023-01-23T17:58:16.056Z,98464.88
2023-01-23T18:00:48.914Z,98477.81
2023-01-23T18:03:20.347Z,98465.00
2023-01-23T18:05:47.032Z,98479.53
2023-01-23T18:08:15.346Z,98484.59
2023-01-23T18:10:44.960Z,98472.50
2023-01-23T18:13:29.429Z,98482.78
2023-01-23T18:16:08.268Z,98483.06
2023-01-23T18:18:38.676Z,98476.28
2023-01-23T18:21:07.620Z,98475.56
2023-01-23T18:23:37.727Z,98471.13
2023-01-23T18:26:10.372Z,98476.28
2023-01-23T18:28:46.328Z,98477.97
2023-01-23T18:31:31.868Z,98484.94
2023-01-23T18:34:40.100Z,98486.53
2023-01-23T18:37:25.414Z,98477.91
2023-01-23T18:40:00.700Z,98482.25
2023-01-23T18:42:34.933Z,98485.72
2023-01-23T18:45:11.104Z,98495.78
2023-01-23T18:47:38.151Z,98487.97
2023-01-23T18:50:06.620Z,98503.31
2023-01-23T18:53:19.692Z,98501.00
2023-01-23T18:55:58.970Z,98492.31
2023-01-23T18:58:37.775Z,98494.97
2023-01-23T19:01:16.267Z,98492.31
2023-01-23T19:03:47.321Z,98489.63
2023-01-23T19:06:19.982Z,98503.31
2023-01-23T19:08:47.929Z,98500.81
2023-01-23T19:11:33.009Z,98506.59
2023-01-23T19:14:21.514Z,98507.38
2023-01-23T19:17:13.722Z,98516.28
2023-01-23T19:19:55.435Z,98512.88
2023-01-23T19:22:22.335Z,98513.69
2023-01-23T19:24:51.820Z,98520.41
2023-01-23T19:27:21.805Z,98519.66
2023-01-23T19:29:48.553Z,98530.56
2023-01-23T19:32:15.710Z,98518.75
2023-01-23T19:34:45.058Z,98519.78
2023-01-23T19:37:11.764Z,98519.91
2023-01-23T19:39:40.569Z,98517.34
2023-01-23T19:42:12.909Z,98519.03
2023-01-23T19:44:39.463Z,98521.59
2023-01-23T19:47:06.772Z,98521.69
2023-01-23T19:49:33.368Z,98522.63
2023-01-23T19:52:00.070Z,98529.28
2023-01-23T19:54:26.710Z,98533.50
2023-01-23T19:56:53.324Z,98527.78
2023-01-23T19:59:20.855Z,98530.94
2023-01-23T20:01:50.684Z,98537.94
2023-01-23T20:04:20.636Z,98537.13
2023-01-23T20:06:49.056Z,98533.63
2023-01-23T20:09:16.122Z,98537.81
2023-01-23T20:11:43.993Z,98537.00
2023-01-23T20:14:11.118Z,98541.25
2023-01-23T20:16:42.893Z,98540.22
2023-01-23T20:19:13.472Z,98535.97
2023-01-23T20:21:40.122Z,98541.31
2023-01-23T20:24:08.156Z,98543.94
2023-01-23T20:26:34.959Z,98541.16
2023-01-23T20:29:02.124Z,98539.69
2023-01-23T20:31:29.182Z,98535.28
2023-01-23T20:33:55.880Z,98538.63
2023-01-23T20:36:22.513Z,98543.78
2023-01-23T20:38:49.047Z,98542.31
2023-01-23T20:41:18.902Z,98541.47
2023-01-23T20:43:45.990Z,98540.53
2023-01-23T20:46:14.385Z,98545.75
2023-01-23T20:48:46.314Z,98541.50
2023-01-23T20:51:15.261Z,98543.84
2023-01-23T20:53:42.373Z,98539.59
2023-01-23T20:56:17.521Z,98545.53
2023-01-23T20:59:07.161Z,98549.16
2023-01-23T21:01:54.932Z,98550.72
2023-01-23T21:04:24.960Z,98561.81
2023-01-23T21:06:52.093Z,98548.97
2023-01-23T21:09:21.844Z,98562.66
2023-01-23T21:11:50.625Z,98561.81
2023-01-23T21:14:17.348Z,98571.91
2023-01-23T21:16:44.001Z,98575.09
2023-01-23T21:19:12.980Z,98569.13
2023-01-23T21:21:39.857Z,98568.41
2023-01-23T21:24:07.368Z,98562.56
2023-01-23T21:26:35.476Z,98563.31
2023-01-23T21:29:02.372Z,98564.28
2023-01-23T21:31:34.784Z,98559.97
2023-01-23T21:34:04.689Z,98569.69
2023-01-23T21:36:31.596Z,98565.25
2023-01-23T21:38:58.899Z,98558.22
2023-01-23T21:41:25.603Z,98560.94
2023-01-23T21:43:52.245Z,98572.00
2023-01-23T21:46:18.869Z,98566.56
2023-01-23T21:48:45.501Z,98580.59
2023-01-23T21:51:14.777Z,98577.19
2023-01-23T21:53:43.460Z,98571.91
2023-01-23T21:56:12.373Z,98573.88
2023-01-23T21:58:39.243Z,98577.19
2023-01-23T22:01:29.330Z,98580.66
2023-01-23T22:03:55.911Z,98584.72
2023-01-23T22:06:22.990Z,98582.31
2023-01-23T22:08:49.861Z,98577.16
2023-01-23T22:11:16.465Z,98584.78
2023-01-23T22:13:43.032Z,98581.38
2023-01-23T22:16:10.996Z,98582.16
2023-01-23T22:18:37.963Z,98580.38
2023-01-23T22:21:06.131Z,98583.19
2023-01-23T22:23:33.412Z,98582.25
2023-01-23T22:26:02.842Z,98578.09
2023-01-23T22:28:29.768Z,98578.91
2023-01-23T22:30:56.913Z,98566.91
2023-01-23T22:33:25.696Z,98577.97
2023-01-23T22:35:52.315Z,98579.75
2023-01-23T22:38:18.998Z,98580.53
2023-01-23T22:40:45.617Z,98582.31
2023-01-23T22:43:12.231Z,98578.22
2023-01-23T22:45:38.825Z,98576.47
2023-01-23T22:48:05.702Z,98585.16
2023-01-23T22:50:32.258Z,98582.56
2023-01-23T22:53:01.305Z,98585.03
2023-01-23T22:55:27.835Z,98583.41
2023-01-23T22:57:54.383Z,98588.53
2023-01-23T23:00:21.198Z,98592.84
2023-01-23T23:02:47.943Z,98592.84
2023-01-23T23:05:14.530Z,98597.19
2023-01-23T23:07:41.288Z,98585.97
2023-01-23T23:10:09.695Z,98597.16
2023-01-23T23:12:36.273Z,98598.00
2023-01-23T23:15:03.246Z,98595.50
2023-01-23T23:17:30.075Z,98591.22
2023-01-23T23:19:57.914Z,98595.50
2023-01-23T23:22:24.491Z,98597.06
2023-01-23T23:24:51.066Z,98602.25
2023-01-23T23:27:17.632Z,98599.03
2023-01-23T23:29:44.217Z,98604.13
2023-01-23T23:32:10.795Z,98601.59
2023-01-23T23:34:40.095Z,98606.75
2023-01-23T23:37:06.646Z,98593.97
2023-01-23T23:39:33.200Z,98594.63
2023-01-23T23:41:59.742Z,98590.47
2023-01-23T23:44:26.332Z,98593.06
2023-01-23T23:46:52.992Z,98597.19
2023-01-23T23:49:19.573Z,98594.59
2023-01-23T23:51:46.111Z,98594.63
2023-01-23T23:54:12.677Z,98594.38
2023-01-23T23:56:39.251Z,98588.41
2023-01-23T23:59:16.372Z,98594.50
